Ana Sayfa
METAR-TAF:

METAR-TAF

Havaalanları :

MidCoast Regional Airport / Wright Army Airfield

Hinesville, Georgia, Amerika Birleşik Devletleri

Enlem: 31-53N, Boylam: 081-34W, yükseklik: 14 m

Güncel hava durumu gözlemi

Rapor saat 10:56 UTC de 29 dakika önce yapıldı.
Rüzgar kuzey/kuzeydoğudan 6 kt
Sıcaklık 0°C
Nem 43%
Basınç 1025 hPa
Görüş mesafesi: 16.1 km
Açık gökyüzü

METAR: KLHW 221056Z AUTO 02006KT 10SM CLR 00/M11 A3026 RMK AO2 SLP250 T10031111 $

Saat: 06:25 (11:25 UTC)


TAF: eksik

4.000'den fazla havaalanı için hava durumu gözlemleri ve tahminleri (METAR ve TAF raporları).

Kullanılabilir istasyonlar harita üzerinde sarı ve kırmızı noktalarla gösterilir.

İstasyonun adını görmek için fareyi noktanın üzerinde gezdirin.

Sonrasında hava gözlem ve tahminlerini görmek için tıklayın.

Haritayı değiştirmek için: yaklaştırmak için siyah artı işaretli yeşil düğmeye ve uzaklaştırmak için de eksi işaretli düğmeye hızla tıklayın; bitişik haritalar için yeşil okları kullanın.


METAR-TAF: